createdAt,value
2022-09-07T00:00:02.873Z,100541.59
2022-09-07T00:01:12.979Z,100536.22
2022-09-07T00:02:15.506Z,100535.27
2022-09-07T00:03:18.464Z,100529.89
2022-09-07T00:04:21.214Z,100542.33
2022-09-07T00:05:23.701Z,100532.58
2022-09-07T00:06:27.637Z,100527.20
2022-09-07T00:07:31.737Z,100537.95
2022-09-07T00:08:34.993Z,100524.52
2022-09-07T00:09:38.058Z,100529.89
2022-09-07T00:10:41.904Z,100533.43
2022-09-07T00:11:46.531Z,100536.11
2022-09-07T00:12:50.274Z,100539.64
2022-09-07T00:13:56.285Z,100529.89
2022-09-07T00:14:58.825Z,100539.64
2022-09-07T00:17:17.805Z,100532.72
2022-09-07T00:18:20.271Z,100531.70
2022-09-07T00:19:22.658Z,100532.69
2022-09-07T00:20:25.272Z,100535.37
2022-09-07T00:21:28.414Z,100538.91
2022-09-07T00:22:39.185Z,100537.06
2022-09-07T00:23:44.752Z,100538.91
2022-09-07T00:24:48.142Z,100542.44
2022-09-07T00:25:53.959Z,100536.22
2022-09-07T00:26:55.678Z,100537.06
2022-09-07T00:27:58.251Z,100541.59
2022-09-07T00:29:01.445Z,100535.27
2022-09-07T00:30:05.091Z,100534.38
2022-09-07T00:31:13.636Z,100536.22
2022-09-07T00:32:16.266Z,100532.69
2022-09-07T00:33:18.876Z,100530.00
2022-09-07T00:34:21.163Z,100533.64
2022-09-07T00:35:24.331Z,100530.95
2022-09-07T00:36:27.272Z,100530.00
2022-09-07T00:37:29.728Z,100530.00
2022-09-07T00:38:32.170Z,100528.16
2022-09-07T00:39:34.803Z,100523.64
2022-09-07T00:40:37.728Z,100532.58
2022-09-07T00:41:40.428Z,100525.48
2022-09-07T00:42:42.734Z,100524.63
2022-09-07T00:43:49.976Z,100525.48
2022-09-07T00:45:07.437Z,100523.75
2022-09-07T00:47:37.497Z,100528.31
2022-09-07T00:50:23.809Z,100526.69
2022-09-07T00:54:10.092Z,100522.38
2022-09-07T00:55:13.415Z,100526.71
2022-09-07T00:56:17.136Z,100518.77
2022-09-07T00:57:22.118Z,100523.36
2022-09-07T00:58:24.734Z,100517.88
2022-09-07T00:59:30.007Z,100524.23
2022-09-07T01:00:35.738Z,100522.41
2022-09-07T01:01:38.208Z,100517.88
2022-09-07T01:02:40.838Z,100512.52
2022-09-07T01:03:46.694Z,100515.20
2022-09-07T01:04:51.019Z,100514.34
2022-09-07T01:07:14.390Z,100506.47
2022-09-07T01:08:17.817Z,100508.88
2022-09-07T01:09:21.541Z,100509.83
2022-09-07T01:10:28.477Z,100507.14
2022-09-07T01:11:31.990Z,100504.45
2022-09-07T01:12:35.213Z,100503.61
2022-09-07T01:13:39.176Z,100504.45
2022-09-07T01:14:45.094Z,100511.56
2022-09-07T01:16:00.293Z,100504.45
2022-09-07T01:17:09.140Z,100506.19
2022-09-07T01:18:27.446Z,100509.72
2022-09-07T01:19:51.891Z,100509.72
2022-09-07T01:21:23.928Z,100504.35
2022-09-07T01:22:56.307Z,100507.14
2022-09-07T01:25:34.778Z,100503.05
2022-09-07T01:26:57.606Z,100501.98
2022-09-07T01:28:21.293Z,100499.52
2022-09-07T01:29:33.510Z,100504.98
2022-09-07T01:30:37.425Z,100506.78
2022-09-07T01:31:50.544Z,100503.25
2022-09-07T01:33:05.788Z,100500.67
2022-09-07T01:34:24.896Z,100498.84
2022-09-07T01:37:15.920Z,100500.92
2022-09-07T01:38:25.105Z,100501.63
2022-09-07T01:40:53.242Z,100496.52
2022-09-07T01:42:04.668Z,100499.05
2022-09-07T01:44:35.379Z,100497.47
2022-09-07T01:45:39.224Z,100488.31
2022-09-07T01:46:51.137Z,100490.99
2022-09-07T01:47:55.251Z,100489.16
2022-09-07T01:49:03.978Z,100479.30
2022-09-07T01:50:10.873Z,100481.89
2022-09-07T01:51:13.285Z,100487.25
2022-09-07T01:52:35.588Z,100486.30
2022-09-07T01:53:40.895Z,100481.78
2022-09-07T01:55:01.796Z,100480.83
2022-09-07T01:57:28.046Z,100479.16
2022-09-07T01:58:51.149Z,100481.57
2022-09-07T02:01:31.069Z,100480.05
2022-09-07T02:04:10.915Z,100477.36
2022-09-07T02:06:40.644Z,100473.80
2022-09-07T02:07:49.817Z,100477.19
2022-09-07T02:10:15.631Z,100471.11
2022-09-07T02:12:56.183Z,100475.63
2022-09-07T02:14:20.712Z,100470.94
2022-09-07T02:15:33.777Z,100471.82
2022-09-07T02:16:38.785Z,100479.88
2022-09-07T02:18:58.437Z,100472.84
2022-09-07T02:21:19.226Z,100469.31
2022-09-07T02:22:24.579Z,100471.82
2022-09-07T02:24:46.602Z,100468.32
2022-09-07T02:25:53.923Z,100470.83
2022-09-07T02:26:57.594Z,100475.25
2022-09-07T02:28:09.715Z,100469.88
2022-09-07T02:29:12.137Z,100471.61
2022-09-07T02:30:16.640Z,100468.92
2022-09-07T02:31:19.099Z,100471.61
2022-09-07T02:32:22.371Z,100461.72
2022-09-07T02:33:26.247Z,100469.67
2022-09-07T02:34:28.804Z,100475.03
2022-09-07T02:35:32.281Z,100466.98
2022-09-07T02:36:39.261Z,100470.55
2022-09-07T02:37:41.889Z,100468.71
2022-09-07T02:38:44.706Z,100463.34
2022-09-07T02:39:47.123Z,100461.51
2022-09-07T02:40:52.408Z,100466.03
2022-09-07T02:41:54.794Z,100466.88
2022-09-07T02:43:02.136Z,100461.51
2022-09-07T02:44:07.544Z,100470.44
2022-09-07T02:45:10.786Z,100466.88
2022-09-07T02:46:23.321Z,100472.14
2022-09-07T02:47:55.428Z,100464.19
2022-09-07T02:49:18.080Z,100465.92
2022-09-07T02:50:49.299Z,100474.93
2022-09-07T02:52:16.401Z,100468.61
2022-09-07T02:53:37.850Z,100468.82
2022-09-07T02:54:55.848Z,100475.14
2022-09-07T02:57:41.954Z,100471.99
2022-09-07T02:58:47.990Z,100473.63
2022-09-07T03:00:06.282Z,100477.27
2022-09-07T03:01:14.458Z,100478.25
2022-09-07T03:02:32.653Z,100468.47
2022-09-07T03:03:48.355Z,100469.42
2022-09-07T03:05:03.751Z,100461.36
2022-09-07T03:08:00.648Z,100458.93
2022-09-07T03:09:06.172Z,100466.73
2022-09-07T03:10:09.372Z,100467.80
2022-09-07T03:11:11.866Z,100472.31
2022-09-07T03:12:14.374Z,100461.58
2022-09-07T03:13:21.354Z,100462.42
2022-09-07T03:14:24.668Z,100460.63
2022-09-07T03:15:27.310Z,100464.16
2022-09-07T03:16:30.569Z,100456.11
2022-09-07T03:17:32.972Z,100462.25
2022-09-07T03:18:35.440Z,100460.41
2022-09-07T03:19:37.920Z,100459.45
2022-09-07T03:20:40.476Z,100462.03
2022-09-07T03:21:44.013Z,100467.41
2022-09-07T03:22:48.318Z,100469.20
2022-09-07T03:23:51.959Z,100468.25
2022-09-07T03:24:54.507Z,100463.77
2022-09-07T03:25:57.577Z,100465.47
2022-09-07T03:27:00.123Z,100464.61
2022-09-07T03:28:02.907Z,100467.20
2022-09-07T03:29:05.761Z,100465.36
2022-09-07T03:30:10.282Z,100462.67
2022-09-07T03:31:12.841Z,100466.23
2022-09-07T03:32:15.573Z,100464.41
2022-09-07T03:33:18.444Z,100461.72
2022-09-07T03:34:22.048Z,100465.25
2022-09-07T03:35:24.580Z,100461.61
2022-09-07T03:36:30.562Z,100459.81
2022-09-07T03:37:35.465Z,100459.81
2022-09-07T03:38:37.936Z,100458.82
2022-09-07T03:39:40.575Z,100458.82
2022-09-07T03:40:43.106Z,100458.93
2022-09-07T03:41:45.678Z,100463.34
2022-09-07T03:42:49.722Z,100458.82
2022-09-07T03:43:53.383Z,100460.55
2022-09-07T03:44:55.744Z,100463.23
2022-09-07T03:45:58.884Z,100457.13
2022-09-07T03:47:01.580Z,100464.09
2022-09-07T03:48:04.629Z,100460.55
2022-09-07T03:49:07.616Z,100463.23
2022-09-07T03:50:10.738Z,100460.55
2022-09-07T03:51:14.083Z,100458.72
2022-09-07T03:52:16.508Z,100464.97
2022-09-07T03:53:20.128Z,100467.65
2022-09-07T03:54:23.443Z,100462.28
2022-09-07T03:55:25.976Z,100466.73
2022-09-07T03:56:29.019Z,100461.36
2022-09-07T03:57:31.521Z,100468.50
2022-09-07T03:58:34.091Z,100471.19
2022-09-07T03:59:36.891Z,100464.89
2022-09-07T04:00:41.050Z,100461.36
2022-09-07T04:01:43.876Z,100464.89
2022-09-07T04:02:46.622Z,100463.13
2022-09-07T04:03:49.425Z,100465.81
2022-09-07T04:04:51.817Z,100469.41
2022-09-07T04:05:54.273Z,100467.58
2022-09-07T04:06:58.619Z,100471.99
2022-09-07T04:08:01.834Z,100470.16
2022-09-07T04:09:05.805Z,100466.63
2022-09-07T04:10:10.100Z,100464.89
2022-09-07T04:11:13.918Z,100474.67
2022-09-07T04:12:16.451Z,100469.31
2022-09-07T04:13:18.767Z,100467.47
2022-09-07T04:14:21.255Z,100473.69
2022-09-07T04:15:24.264Z,100473.69
2022-09-07T04:16:27.860Z,100473.69
2022-09-07T04:17:30.860Z,100476.48
2022-09-07T04:18:34.452Z,100470.27
2022-09-07T04:19:37.364Z,100475.63
2022-09-07T04:20:39.949Z,100475.63
2022-09-07T04:21:43.231Z,100472.95
2022-09-07T04:22:50.457Z,100471.19
2022-09-07T04:23:52.203Z,100477.47
2022-09-07T04:24:55.246Z,100473.88
2022-09-07T04:25:57.589Z,100479.23
2022-09-07T04:27:00.169Z,100473.02
2022-09-07T04:28:02.985Z,100476.66
2022-09-07T04:29:05.518Z,100474.83
2022-09-07T04:30:09.369Z,100474.83
2022-09-07T04:31:12.839Z,100477.51
2022-09-07T04:32:16.402Z,100469.45
2022-09-07T04:33:18.921Z,100476.66
2022-09-07T04:34:21.306Z,100478.50
2022-09-07T04:35:24.833Z,100468.61
2022-09-07T04:36:28.750Z,100477.51
2022-09-07T04:37:31.206Z,100473.98
2022-09-07T04:38:33.700Z,100479.34
2022-09-07T04:39:38.178Z,100479.34
2022-09-07T04:40:40.812Z,100477.51
2022-09-07T04:41:43.286Z,100477.51
2022-09-07T04:42:46.603Z,100479.45
2022-09-07T04:43:57.495Z,100479.34
2022-09-07T04:44:59.891Z,100474.93
2022-09-07T04:47:17.440Z,100478.67
2022-09-07T04:48:20.702Z,100480.30
2022-09-07T04:49:23.010Z,100485.67
2022-09-07T04:50:26.584Z,100484.82
2022-09-07T04:51:30.439Z,100476.77
2022-09-07T04:52:34.248Z,100484.82
2022-09-07T04:53:37.224Z,100478.60
2022-09-07T04:54:39.664Z,100479.45
2022-09-07T04:55:42.016Z,100476.77
2022-09-07T04:56:44.533Z,100485.77
2022-09-07T04:57:49.720Z,100483.09
2022-09-07T04:58:53.988Z,100479.55
2022-09-07T04:59:56.488Z,100480.41
2022-09-07T05:02:16.812Z,100479.73
2022-09-07T05:03:19.373Z,100478.03
2022-09-07T05:04:21.942Z,100478.03
2022-09-07T05:05:24.390Z,100481.36
2022-09-07T05:06:27.807Z,100479.55
2022-09-07T05:07:30.184Z,100481.36
2022-09-07T05:08:39.847Z,100480.41
2022-09-07T05:09:42.271Z,100482.24
2022-09-07T05:12:05.321Z,100475.20
2022-09-07T05:13:08.380Z,100476.77
2022-09-07T05:14:11.139Z,100476.98
2022-09-07T05:15:13.755Z,100476.88
2022-09-07T05:16:19.081Z,100477.72
2022-09-07T05:17:21.646Z,100475.14
2022-09-07T05:18:24.727Z,100473.30
2022-09-07T05:19:27.372Z,100481.36
2022-09-07T05:20:30.191Z,100474.19
2022-09-07T05:21:33.304Z,100475.98
2022-09-07T05:22:36.121Z,100473.30
2022-09-07T05:23:38.611Z,100475.14
2022-09-07T05:24:41.657Z,100468.92
2022-09-07T05:25:45.038Z,100471.61
2022-09-07T05:26:47.853Z,100468.92
2022-09-07T05:27:50.358Z,100475.14
2022-09-07T05:28:52.747Z,100474.30
2022-09-07T05:30:04.303Z,100474.30
2022-09-07T05:31:20.536Z,100474.30
2022-09-07T05:32:09.027Z,100474.30
2022-09-07T05:33:11.410Z,100479.66
2022-09-07T05:34:29.975Z,100478.78
2022-09-07T05:35:18.296Z,100471.61
2022-09-07T05:36:21.981Z,100473.41
2022-09-07T05:37:25.366Z,100475.25
2022-09-07T05:38:28.182Z,100477.93
2022-09-07T05:39:31.783Z,100480.62
2022-09-07T05:40:39.851Z,100477.93
2022-09-07T05:41:39.153Z,100475.25
2022-09-07T05:42:41.657Z,100473.41
2022-09-07T05:44:48.505Z,100478.78
2022-09-07T05:45:55.795Z,100477.83
2022-09-07T05:46:58.291Z,100474.30
2022-09-07T05:48:02.091Z,100474.40
2022-09-07T05:49:04.593Z,100479.77
2022-09-07T05:50:07.939Z,100476.20
2022-09-07T05:51:11.081Z,100474.40
2022-09-07T05:52:14.262Z,100477.83
2022-09-07T05:53:19.252Z,100473.41
2022-09-07T05:54:21.872Z,100467.20
2022-09-07T05:55:31.416Z,100472.56
2022-09-07T05:56:28.991Z,100475.25
2022-09-07T05:57:31.522Z,100477.27
2022-09-07T05:58:34.373Z,100465.00
2022-09-07T05:59:37.059Z,100478.63
2022-09-07T06:00:39.408Z,100469.06
2022-09-07T06:01:42.026Z,100472.06
2022-09-07T06:02:44.810Z,100466.90
2022-09-07T06:03:47.730Z,100463.85
2022-09-07T06:04:50.159Z,100463.85
2022-09-07T06:06:03.929Z,100467.70
2022-09-07T06:07:23.538Z,100472.28
2022-09-07T06:08:11.623Z,100468.95
2022-09-07T06:09:15.163Z,100473.55
2022-09-07T06:11:25.786Z,100479.22
2022-09-07T06:12:28.363Z,100475.00
2022-09-07T06:13:30.882Z,100473.58
2022-09-07T06:14:33.442Z,100473.78
2022-09-07T06:15:35.818Z,100480.20
2022-09-07T06:16:39.264Z,100482.00
2022-09-07T06:17:43.866Z,100479.42
2022-09-07T06:18:48.441Z,100479.89
2022-09-07T06:19:50.934Z,100482.09
2022-09-07T06:20:54.326Z,100480.45
2022-09-07T06:21:57.019Z,100489.45
2022-09-07T06:22:59.524Z,100491.28
2022-09-07T06:24:02.772Z,100486.77
2022-09-07T06:25:05.736Z,100487.45
2022-09-07T06:26:08.670Z,100480.94
2022-09-07T06:27:10.920Z,100487.94
2022-09-07T06:28:13.209Z,100480.73
2022-09-07T06:29:15.537Z,100486.98
2022-09-07T06:30:19.899Z,100490.61
2022-09-07T06:31:22.938Z,100493.30
2022-09-07T06:33:30.142Z,100486.00
2022-09-07T06:34:33.434Z,100489.36
2022-09-07T06:35:35.743Z,100489.36
2022-09-07T06:36:39.352Z,100498.19
2022-09-07T06:37:43.036Z,100491.09
2022-09-07T06:38:45.510Z,100498.45
2022-09-07T06:39:47.784Z,100503.34
2022-09-07T06:41:59.052Z,100498.57
2022-09-07T06:43:01.996Z,100501.16
2022-09-07T06:44:04.884Z,100493.28
2022-09-07T06:45:08.021Z,100499.52
2022-09-07T06:47:14.929Z,100506.61
2022-09-07T06:48:18.065Z,100509.30
2022-09-07T06:49:20.502Z,100502.20
2022-09-07T06:50:23.851Z,100513.88
2022-09-07T06:51:26.358Z,100511.98
2022-09-07T06:52:30.141Z,100503.94
2022-09-07T06:53:37.703Z,100511.87
2022-09-07T06:55:45.324Z,100506.42
2022-09-07T06:56:48.092Z,100511.00
2022-09-07T06:57:53.624Z,100505.83
2022-09-07T06:58:58.987Z,100510.44
2022-09-07T07:00:02.041Z,100513.19
2022-09-07T07:01:12.352Z,100503.64
2022-09-07T07:02:15.086Z,100511.75
2022-09-07T07:03:17.865Z,100512.73
2022-09-07T07:04:21.199Z,100509.17
2022-09-07T07:05:23.879Z,100509.17
2022-09-07T07:07:46.380Z,100504.78
2022-09-07T07:08:52.928Z,100507.27
2022-09-07T07:09:55.587Z,100501.13
2022-09-07T07:14:20.459Z,100500.48
2022-09-07T07:15:25.325Z,100501.42
2022-09-07T07:16:29.571Z,100498.94
2022-09-07T07:17:31.949Z,100500.83
2022-09-07T07:18:34.584Z,100502.77
2022-09-07T07:19:37.811Z,100511.06
2022-09-07T07:20:41.070Z,100505.80
2022-09-07T07:22:07.737Z,100504.95
2022-09-07T07:22:51.435Z,100513.67
2022-09-07T07:23:54.826Z,100512.59
2022-09-07T07:24:57.292Z,100513.38
2022-09-07T07:26:04.468Z,100512.44
2022-09-07T07:27:06.881Z,100520.38
2022-09-07T07:29:18.709Z,100514.33
2022-09-07T07:30:21.283Z,100505.64
2022-09-07T07:31:24.519Z,100508.58
2022-09-07T07:32:26.935Z,100520.34
2022-09-07T07:33:30.927Z,100508.96
2022-09-07T07:34:35.560Z,100502.16
2022-09-07T07:35:39.038Z,100505.78
2022-09-07T07:36:41.618Z,100497.05
2022-09-07T07:37:43.834Z,100497.05
2022-09-07T07:39:03.072Z,100497.05
2022-09-07T07:42:03.251Z,100498.88
2022-09-07T07:43:05.729Z,100499.83
2022-09-07T07:44:10.210Z,100484.30
2022-09-07T07:46:20.578Z,100499.30
2022-09-07T07:47:23.129Z,100492.44
2022-09-07T07:49:38.456Z,100485.05
2022-09-07T07:50:41.701Z,100481.37
2022-09-07T07:53:41.022Z,100482.16
2022-09-07T07:53:52.554Z,100487.33
2022-09-07T07:54:54.800Z,100493.38
2022-09-07T07:55:58.450Z,100482.57
2022-09-07T07:57:00.952Z,100481.72
2022-09-07T07:58:03.254Z,100477.31
2022-09-07T07:59:06.940Z,100478.16
2022-09-07T08:00:11.015Z,100481.72
2022-09-07T08:01:17.181Z,100482.66
2022-09-07T08:02:20.993Z,100472.80
2022-09-07T08:03:26.013Z,100486.98
2022-09-07T08:04:28.697Z,100487.14
2022-09-07T08:05:32.936Z,100476.62
2022-09-07T08:06:36.059Z,100498.04
2022-09-07T08:07:38.915Z,100493.57
2022-09-07T08:08:41.538Z,100490.00
2022-09-07T08:09:45.228Z,100491.33
2022-09-07T08:10:48.510Z,100488.05
2022-09-07T08:11:51.938Z,100483.67
2022-09-07T08:12:55.085Z,100479.27
2022-09-07T08:13:57.554Z,100479.17
2022-09-07T08:15:00.663Z,100472.88
2022-09-07T08:17:05.804Z,100482.35
2022-09-07T08:18:09.098Z,100477.75
2022-09-07T08:19:11.562Z,100478.80
2022-09-07T08:20:16.897Z,100472.78
2022-09-07T08:21:19.030Z,100471.89
2022-09-07T08:22:21.237Z,100468.37
2022-09-07T08:23:24.495Z,100482.70
2022-09-07T08:24:26.627Z,100480.02
2022-09-07T08:25:28.716Z,100472.97
2022-09-07T08:26:32.183Z,100471.23
2022-09-07T08:27:35.704Z,100470.35
2022-09-07T08:28:39.032Z,100469.50
2022-09-07T08:29:41.749Z,100466.07
2022-09-07T08:30:44.089Z,100468.05
2022-09-07T08:31:48.231Z,100462.80
2022-09-07T08:32:50.546Z,100464.43
2022-09-07T08:33:53.582Z,100454.48
2022-09-07T08:34:56.243Z,100460.71
2022-09-07T08:35:59.835Z,100459.08
2022-09-07T08:37:02.305Z,100458.19
2022-09-07T08:38:05.234Z,100455.52
2022-09-07T08:39:07.314Z,100457.25
2022-09-07T08:42:03.923Z,100452.99
2022-09-07T08:43:19.976Z,100457.06
2022-09-07T08:44:33.329Z,100460.52
2022-09-07T08:45:41.549Z,100452.49
2022-09-07T08:46:59.097Z,100436.12
2022-09-07T08:48:02.002Z,100429.12
2022-09-07T08:49:05.924Z,100436.12
2022-09-07T08:52:03.860Z,100430.59
2022-09-07T08:53:18.455Z,100434.70
2022-09-07T08:54:20.592Z,100440.15
2022-09-07T08:55:35.200Z,100441.97
2022-09-07T08:56:39.512Z,100435.64
2022-09-07T08:57:45.382Z,100443.67
2022-09-07T09:00:14.187Z,100443.04
2022-09-07T09:01:31.045Z,100430.48
2022-09-07T09:02:40.199Z,100427.80
2022-09-07T09:04:15.541Z,100427.61
2022-09-07T09:06:10.222Z,100436.23
2022-09-07T09:07:41.181Z,100429.05
2022-09-07T09:10:41.650Z,100426.23
2022-09-07T09:13:17.826Z,100420.13
2022-09-07T09:14:36.421Z,100417.11
2022-09-07T09:17:33.961Z,100407.39
2022-09-07T09:19:01.006Z,100408.91
2022-09-07T09:20:24.011Z,100405.26
2022-09-07T09:21:27.925Z,100408.62
2022-09-07T09:22:30.516Z,100408.53
2022-09-07T09:23:43.027Z,100414.77
2022-09-07T09:24:50.980Z,100412.09
2022-09-07T09:27:11.509Z,100406.53
2022-09-07T09:28:13.793Z,100407.09
2022-09-07T09:29:20.198Z,100404.22
2022-09-07T09:30:24.247Z,100401.38
2022-09-07T09:32:43.009Z,100413.85
2022-09-07T09:34:06.948Z,100403.76
2022-09-07T09:35:30.878Z,100394.84
2022-09-07T09:37:59.132Z,100393.08
2022-09-07T09:39:04.217Z,100399.87
2022-09-07T09:40:09.513Z,100390.11
2022-09-07T09:41:13.134Z,100390.98
2022-09-07T09:42:19.157Z,100385.02
2022-09-07T09:43:23.509Z,100386.91
2022-09-07T09:44:29.375Z,100394.19
2022-09-07T09:46:12.156Z,100390.66
2022-09-07T09:46:39.780Z,100383.48
2022-09-07T09:47:45.029Z,100381.55
2022-09-07T09:49:00.184Z,100385.96
2022-09-07T09:50:09.502Z,100374.30
2022-09-07T09:52:41.788Z,100392.27
2022-09-07T09:54:42.028Z,100383.90
2022-09-07T09:55:44.166Z,100390.73
2022-09-07T09:56:48.258Z,100389.03
2022-09-07T10:00:29.237Z,100382.70
2022-09-07T10:03:56.043Z,100378.88
2022-09-07T10:04:52.043Z,100371.62
2022-09-07T10:05:54.882Z,100368.87
2022-09-07T10:07:01.499Z,100375.96
2022-09-07T10:08:07.401Z,100369.63
2022-09-07T10:09:11.329Z,100370.61
2022-09-07T10:10:15.166Z,100368.03
2022-09-07T10:11:17.294Z,100365.34
2022-09-07T10:12:33.619Z,100376.06
2022-09-07T10:14:52.355Z,100368.87
2022-09-07T10:15:56.003Z,100366.78
2022-09-07T10:16:58.530Z,100376.52
2022-09-07T10:19:34.720Z,100372.13
2022-09-07T10:20:38.765Z,100377.20
2022-09-07T10:21:41.986Z,100368.22
2022-09-07T10:22:59.206Z,100361.88
2022-09-07T10:24:09.217Z,100367.06
2022-09-07T10:25:33.423Z,100369.55
2022-09-07T10:26:37.233Z,100363.23
2022-09-07T10:27:41.599Z,100362.26
2022-09-07T10:29:51.585Z,100360.26
2022-09-07T10:31:15.907Z,100362.73
2022-09-07T10:35:15.358Z,100365.52
2022-09-07T10:36:52.448Z,100362.84
2022-09-07T10:38:18.896Z,100363.78
2022-09-07T10:40:43.488Z,100366.09
2022-09-07T10:41:52.885Z,100352.69
2022-09-07T10:44:05.969Z,100353.38
2022-09-07T10:45:12.037Z,100341.70
2022-09-07T10:48:00.771Z,100345.13
2022-09-07T10:49:16.233Z,100333.36
2022-09-07T10:50:37.055Z,100342.93
2022-09-07T10:52:04.474Z,100354.43
2022-09-07T10:53:39.507Z,100340.05
2022-09-07T10:54:31.046Z,100338.15
2022-09-07T10:55:41.136Z,100338.05
2022-09-07T10:57:15.140Z,100337.09
2022-09-07T11:01:30.087Z,100328.06
2022-09-07T11:04:02.753Z,100334.01
2022-09-07T11:05:36.121Z,100321.45
2022-09-07T11:06:45.450Z,100330.38
2022-09-07T11:07:59.916Z,100328.44
2022-09-07T11:09:25.945Z,100324.81
2022-09-07T11:10:32.760Z,100322.13
2022-09-07T11:12:05.093Z,100324.70
2022-09-07T11:12:56.566Z,100331.80
2022-09-07T11:15:20.263Z,100319.40
2022-09-07T11:17:33.910Z,100303.73
2022-09-07T11:18:49.458Z,100325.17
2022-09-07T11:21:15.294Z,100311.72
2022-09-07T11:22:30.136Z,100309.66
2022-09-07T11:23:48.382Z,100313.19
2022-09-07T11:26:20.589Z,100300.34
2022-09-07T11:27:29.117Z,100309.24
2022-09-07T11:30:01.150Z,100299.30
2022-09-07T11:31:06.044Z,100297.45
2022-09-07T11:32:15.287Z,100293.05
2022-09-07T11:33:34.478Z,100284.05
2022-09-07T11:36:12.702Z,100286.80
2022-09-07T11:37:38.230Z,100289.20
2022-09-07T11:38:47.004Z,100285.67
2022-09-07T11:39:59.232Z,100282.99
2022-09-07T11:41:20.811Z,100276.75
2022-09-07T11:42:49.328Z,100284.72
2022-09-07T11:43:42.084Z,100277.63
2022-09-07T11:46:31.973Z,100290.26
2022-09-07T11:47:41.956Z,100277.53
2022-09-07T11:48:52.615Z,100284.72
2022-09-07T11:49:58.608Z,100280.14
2022-09-07T11:51:05.417Z,100279.26
2022-09-07T11:52:17.169Z,100272.09
2022-09-07T11:53:25.237Z,100273.81
2022-09-07T11:54:33.581Z,100276.50
2022-09-07T11:55:37.651Z,100274.66
2022-09-07T11:56:45.593Z,100277.24
2022-09-07T11:58:01.571Z,100273.61
2022-09-07T11:59:25.207Z,100275.33
2022-09-07T12:00:59.805Z,100266.30
2022-09-07T12:03:54.167Z,100278.16
2022-09-07T12:05:19.730Z,100271.66
2022-09-07T12:06:35.216Z,100262.03
2022-09-07T12:07:56.453Z,100262.98
2022-09-07T12:09:08.565Z,100260.30
2022-09-07T12:10:33.879Z,100261.16
2022-09-07T12:11:46.025Z,100260.30
2022-09-07T12:13:26.973Z,100255.89
2022-09-07T12:14:42.035Z,100246.02
2022-09-07T12:15:50.524Z,100261.26
2022-09-07T12:17:31.797Z,100253.21
2022-09-07T12:19:08.377Z,100258.69
2022-09-07T12:20:17.479Z,100261.26
2022-09-07T12:21:40.067Z,100256.84
2022-09-07T12:23:04.455Z,100246.12
2022-09-07T12:24:04.801Z,100255.13
2022-09-07T12:25:08.056Z,100245.35
2022-09-07T12:26:35.364Z,100244.50
2022-09-07T12:27:37.883Z,100243.52
2022-09-07T12:28:46.706Z,100247.95
2022-09-07T12:30:00.130Z,100234.55
2022-09-07T12:31:04.795Z,100239.81
2022-09-07T12:32:53.530Z,100239.70
2022-09-07T12:33:19.851Z,100232.53
2022-09-07T12:34:34.939Z,100234.23
2022-09-07T12:35:38.688Z,100232.32
2022-09-07T12:37:59.948Z,100218.92
2022-09-07T12:39:21.207Z,100223.22
2022-09-07T12:40:37.563Z,100224.06
2022-09-07T12:41:41.997Z,100244.45
2022-09-07T12:42:45.596Z,100240.81
2022-09-07T12:43:52.518Z,100240.70
2022-09-07T12:45:33.878Z,100224.51
2022-09-07T12:46:40.051Z,100228.91
2022-09-07T12:47:42.331Z,100229.66
2022-09-07T12:49:09.085Z,100224.29
2022-09-07T12:52:52.790Z,100220.55
2022-09-07T12:54:15.447Z,100219.70
2022-09-07T12:58:37.743Z,100223.23
2022-09-07T12:59:58.874Z,100235.69
2022-09-07T13:01:15.329Z,100220.55
2022-09-07T13:02:27.305Z,100222.38
2022-09-07T13:04:50.808Z,100221.39
2022-09-07T13:06:15.343Z,100216.91
2022-09-07T13:08:04.065Z,100220.55
2022-09-07T13:10:33.921Z,100230.55
2022-09-07T13:11:37.642Z,100228.59
2022-09-07T13:14:16.981Z,100209.08
2022-09-07T13:15:41.056Z,100199.94
2022-09-07T13:17:56.281Z,100203.39
2022-09-07T13:19:01.888Z,100206.91
2022-09-07T13:20:08.035Z,100209.48
2022-09-07T13:21:14.040Z,100209.38
2022-09-07T13:22:32.593Z,100207.58
2022-09-07T13:23:41.787Z,100210.15
2022-09-07T13:24:48.022Z,100202.10
2022-09-07T13:25:52.402Z,100203.83
2022-09-07T13:27:12.594Z,100200.16
2022-09-07T13:28:24.016Z,100200.05
2022-09-07T13:33:39.608Z,100202.54
2022-09-07T13:34:51.557Z,100202.54
2022-09-07T13:35:55.324Z,100202.43
2022-09-07T13:37:02.851Z,100192.55
2022-09-07T13:38:05.246Z,100194.27
2022-09-07T13:40:29.827Z,100197.80
2022-09-07T13:41:35.629Z,100195.77
2022-09-07T13:42:39.244Z,100190.41
2022-09-07T13:43:47.852Z,100197.50
2022-09-07T13:46:22.801Z,100199.22
2022-09-07T13:47:45.766Z,100189.23
2022-09-07T13:48:50.104Z,100193.72
2022-09-07T13:50:07.050Z,100198.02
2022-09-07T13:51:24.108Z,100194.48
2022-09-07T13:53:50.745Z,100174.95
2022-09-07T13:55:25.956Z,100179.23
2022-09-07T13:56:42.573Z,100183.75
2022-09-07T13:58:01.168Z,100175.70
2022-09-07T14:00:30.506Z,100174.95
2022-09-07T14:01:33.181Z,100175.70
2022-09-07T14:02:36.558Z,100183.75
2022-09-07T14:03:45.299Z,100186.44
2022-09-07T14:06:17.878Z,100179.33
2022-09-07T14:07:21.639Z,100185.37
2022-09-07T14:09:38.488Z,100176.45
2022-09-07T14:10:43.867Z,100182.45
2022-09-07T14:11:50.577Z,100175.25
2022-09-07T14:13:06.865Z,100178.70
2022-09-07T14:14:21.030Z,100185.80
2022-09-07T14:15:32.957Z,100174.07
2022-09-07T14:16:35.564Z,100173.95
2022-09-07T14:17:38.771Z,100167.74
2022-09-07T14:18:41.937Z,100161.42
2022-09-07T14:19:45.673Z,100161.42
2022-09-07T14:20:52.256Z,100163.14
2022-09-07T14:21:59.047Z,100162.15
2022-09-07T14:23:01.185Z,100162.03
2022-09-07T14:24:05.956Z,100163.88
2022-09-07T14:26:25.417Z,100163.88
2022-09-07T14:27:38.531Z,100168.17
2022-09-07T14:28:41.799Z,100152.06
2022-09-07T14:29:43.987Z,100161.84
2022-09-07T14:30:46.279Z,100166.98
2022-09-07T14:31:50.134Z,100159.78
2022-09-07T14:34:14.899Z,100157.09
2022-09-07T14:35:19.298Z,100163.15
2022-09-07T14:36:44.304Z,100155.09
2022-09-07T14:37:35.183Z,100157.66
2022-09-07T14:39:44.479Z,100158.39
2022-09-07T14:40:46.897Z,100159.27
2022-09-07T14:41:49.096Z,100161.84
2022-09-07T14:42:53.069Z,100160.01
2022-09-07T14:43:56.652Z,100152.83
2022-09-07T14:45:18.123Z,100156.36
2022-09-07T14:46:33.309Z,100160.66
2022-09-07T14:47:35.635Z,100165.91
2022-09-07T14:48:39.181Z,100162.27
2022-09-07T14:49:43.502Z,100171.17
2022-09-07T14:50:53.340Z,100159.47
2022-09-07T14:51:52.050Z,100163.95
2022-09-07T14:54:00.479Z,100155.83
2022-09-07T14:56:21.157Z,100159.31
2022-09-07T14:57:27.331Z,100164.61